createdAt,value
2023-05-09T00:00:09.957Z,61.9187
2023-05-09T00:01:11.816Z,62.0008
2023-05-09T00:02:14.529Z,62.0574
2023-05-09T00:03:16.793Z,61.6158
2023-05-09T00:04:19.277Z,61.0765
2023-05-09T00:05:21.245Z,61.0737
2023-05-09T00:06:23.892Z,61.1045
2023-05-09T00:07:25.814Z,61.1922
2023-05-09T00:08:28.144Z,61.3074
2023-05-09T00:09:30.539Z,61.3852
2023-05-09T00:10:32.847Z,61.3686
2023-05-09T00:11:35.199Z,61.2143
2023-05-09T00:12:37.503Z,60.9318
2023-05-09T00:13:39.870Z,60.8661
2023-05-09T00:14:42.179Z,61.1520
2023-05-09T00:15:44.619Z,60.7973
2023-05-09T00:16:46.901Z,60.5602
2023-05-09T00:17:49.225Z,60.3941
2023-05-09T00:18:51.500Z,60.3895
2023-05-09T00:19:53.983Z,60.1429
2023-05-09T00:20:56.271Z,60.3133
2023-05-09T00:21:58.606Z,60.4611
2023-05-09T00:23:00.919Z,60.6079
2023-05-09T00:24:03.184Z,60.9017
2023-05-09T00:25:05.627Z,60.8700
2023-05-09T00:26:07.878Z,60.7811
2023-05-09T00:27:10.241Z,60.7069
2023-05-09T00:28:12.533Z,60.8336
2023-05-09T00:29:14.949Z,60.6906
2023-05-09T00:30:17.596Z,60.4366
2023-05-09T00:31:19.533Z,60.2097
2023-05-09T00:32:21.896Z,60.3941
2023-05-09T00:33:24.355Z,60.3867
2023-05-09T00:34:26.752Z,60.1848
2023-05-09T00:35:28.889Z,60.0828
2023-05-09T00:36:31.566Z,60.1034
2023-05-09T00:37:33.583Z,60.2555
2023-05-09T00:38:36.000Z,60.4969
2023-05-09T00:39:38.472Z,60.6498
2023-05-09T00:40:41.639Z,60.7309
2023-05-09T00:41:42.910Z,60.8242
2023-05-09T00:42:45.264Z,60.7622
2023-05-09T00:43:47.849Z,60.5674
2023-05-09T00:44:50.260Z,60.1017
2023-05-09T00:45:52.567Z,59.8458
2023-05-09T00:46:54.735Z,59.6203
2023-05-09T00:47:57.128Z,59.5709
2023-05-09T00:48:59.272Z,59.9298
2023-05-09T00:50:02.089Z,60.1213
2023-05-09T00:51:03.950Z,60.1486
2023-05-09T00:52:06.337Z,60.4139
2023-05-09T00:53:08.887Z,60.4793
2023-05-09T00:54:10.968Z,60.6203
2023-05-09T00:55:13.756Z,60.8601
2023-05-09T00:56:15.919Z,61.0399
2023-05-09T00:57:17.948Z,61.1080
2023-05-09T00:58:20.713Z,61.0936
2023-05-09T00:59:23.285Z,61.1999
2023-05-09T01:00:25.024Z,61.2037
2023-05-09T01:01:27.345Z,61.1383
2023-05-09T01:02:29.857Z,60.9805
2023-05-09T01:03:32.116Z,61.0710
2023-05-09T01:04:34.290Z,61.3301
2023-05-09T01:05:36.672Z,61.3731
2023-05-09T01:06:39.251Z,61.2176
2023-05-09T01:07:41.415Z,60.8871
2023-05-09T01:08:43.726Z,60.7148
2023-05-09T01:09:45.977Z,60.7892
2023-05-09T01:10:48.447Z,60.8086
2023-05-09T01:11:50.712Z,60.7901
2023-05-09T01:12:53.048Z,60.9147
2023-05-09T01:13:55.603Z,60.7781
2023-05-09T01:14:57.691Z,60.4428
2023-05-09T01:16:00.411Z,60.2694
2023-05-09T01:17:02.574Z,60.5471
2023-05-09T01:18:05.257Z,60.0921
2023-05-09T01:19:07.680Z,60.0431
2023-05-09T01:20:09.373Z,60.2024
2023-05-09T01:21:11.778Z,60.5971
2023-05-09T01:22:14.231Z,60.2793
2023-05-09T01:23:17.273Z,60.4502
2023-05-09T01:24:19.839Z,60.6551
2023-05-09T01:25:21.334Z,60.8143
2023-05-09T01:26:23.686Z,61.0253
2023-05-09T01:27:26.430Z,61.3334
2023-05-09T01:28:28.096Z,61.4065
2023-05-09T01:29:30.395Z,61.4316
2023-05-09T01:30:33.527Z,61.3163
2023-05-09T01:31:36.737Z,61.4638
2023-05-09T01:32:37.866Z,61.4701
2023-05-09T01:33:39.795Z,61.1876
2023-05-09T01:34:42.086Z,60.8759
2023-05-09T01:35:44.410Z,60.9155
2023-05-09T01:36:46.746Z,60.8844
2023-05-09T01:37:49.249Z,61.1652
2023-05-09T01:38:51.553Z,61.3368
2023-05-09T01:39:54.128Z,61.2988
2023-05-09T01:40:56.220Z,61.1365
2023-05-09T01:41:58.423Z,61.2175
2023-05-09T01:43:00.819Z,61.4949
2023-05-09T01:44:03.328Z,61.3960
2023-05-09T01:45:05.440Z,61.2841
2023-05-09T01:46:07.877Z,61.2188
2023-05-09T01:47:10.138Z,61.1843
2023-05-09T01:48:12.462Z,61.2737
2023-05-09T01:49:14.802Z,61.1988
2023-05-09T01:50:17.379Z,61.1518
2023-05-09T01:51:19.622Z,61.0723
2023-05-09T01:52:21.784Z,60.9966
2023-05-09T01:53:24.216Z,61.0088
2023-05-09T01:54:26.935Z,61.1318
2023-05-09T01:55:28.804Z,61.3785
2023-05-09T01:56:31.210Z,61.4266
2023-05-09T01:57:33.508Z,61.5267
2023-05-09T01:58:36.312Z,61.4919
2023-05-09T01:59:38.233Z,61.5633
2023-05-09T02:00:40.570Z,61.7215
2023-05-09T02:01:42.886Z,61.9426
2023-05-09T02:02:45.390Z,61.7490
2023-05-09T02:03:47.573Z,61.6153
2023-05-09T02:04:49.873Z,61.5103
2023-05-09T02:05:52.250Z,61.6709
2023-05-09T02:06:54.578Z,61.6372
2023-05-09T02:07:56.962Z,61.7057
2023-05-09T02:08:59.200Z,61.9272
2023-05-09T02:10:01.653Z,61.8505
2023-05-09T02:11:03.893Z,61.7953
2023-05-09T02:12:06.234Z,61.6967
2023-05-09T02:13:08.577Z,61.3116
2023-05-09T02:14:11.045Z,61.2341
2023-05-09T02:15:13.390Z,61.1198
2023-05-09T02:16:15.932Z,60.9426
2023-05-09T02:17:18.222Z,60.9460
2023-05-09T02:18:20.292Z,61.0470
2023-05-09T02:19:22.612Z,60.8885
2023-05-09T02:20:24.910Z,60.6556
2023-05-09T02:21:29.120Z,60.5099
2023-05-09T02:22:29.696Z,60.6364
2023-05-09T02:23:31.951Z,60.8325
2023-05-09T02:24:34.350Z,61.0799
2023-05-09T02:25:36.655Z,61.0078
2023-05-09T02:26:39.543Z,61.1364
2023-05-09T02:27:41.317Z,61.4284
2023-05-09T02:28:43.657Z,61.6439
2023-05-09T02:29:45.963Z,61.7100
2023-05-09T02:30:48.397Z,61.6646
2023-05-09T02:31:50.758Z,61.9288
2023-05-09T02:32:53.081Z,62.1631
2023-05-09T02:33:55.515Z,62.3270
2023-05-09T02:34:57.620Z,62.2871
2023-05-09T02:36:00.206Z,62.1191
2023-05-09T02:37:02.451Z,62.1560
2023-05-09T02:38:04.631Z,61.7536
2023-05-09T02:39:07.321Z,61.5215
2023-05-09T02:40:09.885Z,61.7391
2023-05-09T02:41:11.705Z,61.7064
2023-05-09T02:42:14.026Z,61.8188
2023-05-09T02:43:16.746Z,61.6767
2023-05-09T02:44:18.673Z,61.6041
2023-05-09T02:45:21.027Z,61.5446
2023-05-09T02:46:23.750Z,61.2683
2023-05-09T02:47:25.694Z,61.2483
2023-05-09T02:48:28.036Z,61.2495
2023-05-09T02:49:32.426Z,61.2234
2023-05-09T02:50:32.751Z,61.2556
2023-05-09T02:51:35.219Z,61.4472
2023-05-09T02:52:37.437Z,61.4321
2023-05-09T02:53:39.794Z,61.7185
2023-05-09T02:54:42.098Z,61.8718
2023-05-09T02:55:44.408Z,61.7914
2023-05-09T02:56:46.830Z,61.6406
2023-05-09T02:57:51.994Z,61.8084
2023-05-09T02:58:51.567Z,62.1165
2023-05-09T02:59:53.854Z,62.2413
2023-05-09T03:00:56.114Z,62.3905
2023-05-09T03:01:58.434Z,62.2742
2023-05-09T03:03:00.859Z,62.0601
2023-05-09T03:04:03.079Z,61.9294
2023-05-09T03:05:05.410Z,61.8687
2023-05-09T03:06:07.771Z,61.9756
2023-05-09T03:07:10.088Z,62.1281
2023-05-09T03:08:12.412Z,62.2074
2023-05-09T03:09:14.809Z,62.2909
2023-05-09T03:10:17.301Z,62.2791
2023-05-09T03:11:19.564Z,62.3190
2023-05-09T03:12:21.852Z,62.3833
2023-05-09T03:13:24.202Z,62.3746
2023-05-09T03:14:26.539Z,62.0966
2023-05-09T03:15:28.775Z,61.7013
2023-05-09T03:16:31.187Z,61.7281
2023-05-09T03:17:33.476Z,61.4131
2023-05-09T03:18:35.759Z,61.0980
2023-05-09T03:19:38.121Z,60.5229
2023-05-09T03:20:40.464Z,60.0705
2023-05-09T03:21:42.881Z,59.9118
2023-05-09T03:22:45.125Z,60.6223
2023-05-09T03:23:47.501Z,61.2869
2023-05-09T03:24:49.801Z,61.3960
2023-05-09T03:25:52.112Z,60.6882
2023-05-09T03:26:54.461Z,60.3463
2023-05-09T03:27:56.880Z,59.8499
2023-05-09T03:28:59.135Z,60.3310
2023-05-09T03:30:01.454Z,61.1359
2023-05-09T03:31:03.949Z,60.8430
2023-05-09T03:32:06.236Z,60.4249
2023-05-09T03:33:08.526Z,60.5796
2023-05-09T03:34:10.794Z,60.8688
2023-05-09T03:35:13.476Z,61.6161
2023-05-09T03:36:15.484Z,62.0089
2023-05-09T03:37:17.817Z,62.2377
2023-05-09T03:38:20.132Z,62.3594
2023-05-09T03:39:22.471Z,62.5010
2023-05-09T03:40:24.971Z,62.6247
2023-05-09T03:41:27.145Z,62.5664
2023-05-09T03:42:29.509Z,62.5155
2023-05-09T03:43:31.919Z,62.6162
2023-05-09T03:44:34.151Z,62.7024
2023-05-09T03:45:36.609Z,62.7105
2023-05-09T03:46:38.896Z,62.8005
2023-05-09T03:47:41.217Z,62.9069
2023-05-09T03:48:43.511Z,62.9721
2023-05-09T03:49:45.847Z,63.1632
2023-05-09T03:50:48.203Z,63.3814
2023-05-09T03:51:50.548Z,63.3778
2023-05-09T03:52:52.843Z,63.1617
2023-05-09T03:53:55.434Z,63.0830
2023-05-09T03:54:57.752Z,62.9173
2023-05-09T03:55:59.871Z,62.7922
2023-05-09T03:57:02.249Z,62.7378
2023-05-09T03:58:04.597Z,62.6656
2023-05-09T03:59:06.950Z,62.6371
2023-05-09T04:00:09.426Z,62.6341
2023-05-09T04:01:11.681Z,62.8318
2023-05-09T04:02:14.840Z,62.9355
2023-05-09T04:03:16.252Z,62.9165
2023-05-09T04:04:19.587Z,62.9395
2023-05-09T04:05:20.879Z,62.9142
2023-05-09T04:06:23.200Z,62.9434
2023-05-09T04:07:25.555Z,63.2213
2023-05-09T04:08:27.881Z,63.3580
2023-05-09T04:09:30.338Z,63.3108
2023-05-09T04:10:32.536Z,63.2471
2023-05-09T04:11:35.250Z,63.2746
2023-05-09T04:12:37.227Z,63.2984
2023-05-09T04:13:39.728Z,63.2461
2023-05-09T04:14:41.980Z,63.0223
2023-05-09T04:15:44.229Z,62.8110
2023-05-09T04:16:46.584Z,62.8680
2023-05-09T04:17:51.305Z,62.9311
2023-05-09T04:18:51.226Z,62.8590
2023-05-09T04:19:53.570Z,62.9633
2023-05-09T04:20:55.894Z,63.0615
2023-05-09T04:21:58.230Z,63.0759
2023-05-09T04:23:00.628Z,63.1703
2023-05-09T04:24:02.908Z,63.0756
2023-05-09T04:25:05.299Z,62.8681
2023-05-09T04:26:07.617Z,62.7290
2023-05-09T04:27:09.947Z,62.8049
2023-05-09T04:28:12.259Z,62.7962
2023-05-09T04:29:14.643Z,62.7159
2023-05-09T04:30:17.046Z,62.7420
2023-05-09T04:31:19.402Z,62.5340
2023-05-09T04:32:21.603Z,62.6265
2023-05-09T04:33:23.960Z,62.7481
2023-05-09T04:34:26.292Z,62.8709
2023-05-09T04:35:28.660Z,62.9344
2023-05-09T04:36:30.966Z,62.9514
2023-05-09T04:37:33.306Z,62.8894
2023-05-09T04:38:35.657Z,62.8662
2023-05-09T04:39:37.973Z,62.8424
2023-05-09T04:40:40.324Z,62.8614
2023-05-09T04:41:42.649Z,62.7912
2023-05-09T04:42:45.024Z,62.5990
2023-05-09T04:43:47.297Z,62.8736
2023-05-09T04:44:49.658Z,63.0376
2023-05-09T04:45:52.066Z,62.9803
2023-05-09T04:46:54.280Z,62.8473
2023-05-09T04:47:56.691Z,62.6469
2023-05-09T04:48:59.682Z,62.3376
2023-05-09T04:50:01.314Z,62.2677
2023-05-09T04:51:03.641Z,62.1971
2023-05-09T04:52:06.003Z,62.2317
2023-05-09T04:53:08.316Z,61.9567
2023-05-09T04:54:10.651Z,61.9720
2023-05-09T04:55:13.260Z,62.0561
2023-05-09T04:56:15.329Z,61.8277
2023-05-09T04:57:18.844Z,61.8460
2023-05-09T04:58:19.999Z,62.0836
2023-05-09T04:59:22.327Z,62.1415
2023-05-09T05:00:24.712Z,62.2812
2023-05-09T05:01:27.120Z,62.1479
2023-05-09T05:02:29.358Z,61.9111
2023-05-09T05:03:31.671Z,62.0247
2023-05-09T05:04:34.061Z,62.1736
2023-05-09T05:05:37.412Z,61.9386
2023-05-09T05:06:38.685Z,61.7976
2023-05-09T05:07:41.033Z,61.8875
2023-05-09T05:08:43.359Z,61.7774
2023-05-09T05:09:45.779Z,61.8638
2023-05-09T05:10:48.246Z,61.9284
2023-05-09T05:11:59.448Z,61.9209
2023-05-09T05:12:52.740Z,61.8009
2023-05-09T05:13:55.043Z,61.5841
2023-05-09T05:14:57.388Z,61.4462
2023-05-09T05:15:59.783Z,61.2483
2023-05-09T05:17:02.136Z,61.1489
2023-05-09T05:18:04.410Z,61.3392
2023-05-09T05:19:06.733Z,61.4462
2023-05-09T05:20:09.065Z,61.5391
2023-05-09T05:21:11.413Z,61.6559
2023-05-09T05:22:13.732Z,61.7403
2023-05-09T05:23:16.061Z,61.6571
2023-05-09T05:24:18.396Z,61.2926
2023-05-09T05:25:20.743Z,61.1431
2023-05-09T05:26:23.084Z,61.0022
2023-05-09T05:27:25.396Z,61.0401
2023-05-09T05:28:27.738Z,60.5631
2023-05-09T05:29:30.067Z,60.9861
2023-05-09T05:30:34.141Z,61.1548
2023-05-09T05:31:34.803Z,60.7825
2023-05-09T05:32:37.173Z,61.1233
2023-05-09T05:33:39.419Z,60.4187
2023-05-09T05:34:41.734Z,60.3698
2023-05-09T05:35:44.086Z,60.7419
2023-05-09T05:36:46.432Z,60.9009
2023-05-09T05:37:49.217Z,60.9544
2023-05-09T05:38:51.092Z,61.0320
2023-05-09T05:39:53.429Z,60.9425
2023-05-09T05:40:55.778Z,60.7970
2023-05-09T05:41:58.487Z,60.7487
2023-05-09T05:43:00.459Z,60.9471
2023-05-09T05:44:02.773Z,61.0263
2023-05-09T05:45:05.144Z,61.2106
2023-05-09T05:46:07.523Z,61.3388
2023-05-09T05:47:09.788Z,61.3402
2023-05-09T05:48:12.234Z,60.5195
2023-05-09T05:49:14.465Z,61.0827
2023-05-09T05:50:16.794Z,61.3528
2023-05-09T05:51:19.122Z,61.5438
2023-05-09T05:52:21.460Z,61.9260
2023-05-09T05:53:23.784Z,61.8456
2023-05-09T05:54:26.122Z,61.9587
2023-05-09T05:55:28.480Z,62.2327
2023-05-09T05:56:30.788Z,62.2386
2023-05-09T05:57:33.119Z,62.2074
2023-05-09T05:58:35.449Z,62.2127
2023-05-09T05:59:37.770Z,62.4283
2023-05-09T06:00:40.136Z,61.9926
2023-05-09T06:01:42.482Z,61.7040
2023-05-09T06:02:44.878Z,61.7079
2023-05-09T06:03:47.355Z,61.7620
2023-05-09T06:04:49.449Z,61.5954
2023-05-09T06:05:51.821Z,61.7541
2023-05-09T06:06:54.114Z,61.5300
2023-05-09T06:07:56.519Z,61.4530
2023-05-09T06:08:58.785Z,61.7204
2023-05-09T06:10:01.110Z,61.9148
2023-05-09T06:11:03.506Z,61.9726
2023-05-09T06:12:05.964Z,62.0153
2023-05-09T06:13:08.141Z,62.2095
2023-05-09T06:14:10.462Z,62.0216
2023-05-09T06:15:13.107Z,61.6020
2023-05-09T06:16:19.679Z,61.5272
2023-05-09T06:17:18.440Z,61.4610
2023-05-09T06:18:19.792Z,61.5109
2023-05-09T06:19:22.175Z,61.4708
2023-05-09T06:20:24.458Z,60.9486
2023-05-09T06:21:26.869Z,60.7080
2023-05-09T06:22:29.147Z,60.5130
2023-05-09T06:23:31.475Z,59.6285
2023-05-09T06:24:36.343Z,59.3194
2023-05-09T06:25:36.192Z,59.6843
2023-05-09T06:26:38.497Z,59.6173
2023-05-09T06:27:40.821Z,59.3952
2023-05-09T06:28:43.166Z,59.6801
2023-05-09T06:29:45.500Z,60.1829
2023-05-09T06:30:47.837Z,60.0136
2023-05-09T06:31:50.553Z,59.6300
2023-05-09T06:32:52.595Z,59.7886
2023-05-09T06:33:54.831Z,59.2406
2023-05-09T06:34:57.250Z,58.6963
2023-05-09T06:35:59.511Z,58.9837
2023-05-09T06:37:01.868Z,58.6267
2023-05-09T06:38:04.179Z,58.6153
2023-05-09T06:39:06.536Z,59.0507
2023-05-09T06:40:08.888Z,59.6795
2023-05-09T06:41:11.194Z,59.3054
2023-05-09T06:42:13.537Z,59.3217
2023-05-09T06:43:15.859Z,58.4548
2023-05-09T06:44:18.190Z,58.1321
2023-05-09T06:45:20.763Z,58.2167
2023-05-09T06:46:22.975Z,58.8632
2023-05-09T06:47:25.249Z,59.4261
2023-05-09T06:48:27.527Z,58.8555
2023-05-09T06:49:29.875Z,58.1282
2023-05-09T06:50:33.016Z,57.2313
2023-05-09T06:51:34.546Z,56.9793
2023-05-09T06:52:36.878Z,57.3519
2023-05-09T06:53:39.209Z,57.9274
2023-05-09T06:54:41.586Z,57.7666
2023-05-09T06:55:43.936Z,57.9323
2023-05-09T06:56:46.270Z,58.6402
2023-05-09T06:57:48.611Z,58.4648
2023-05-09T06:58:50.944Z,58.9736
2023-05-09T06:59:53.272Z,59.4777
2023-05-09T07:00:55.619Z,59.6765
2023-05-09T07:01:58.129Z,59.2196
2023-05-09T07:03:00.345Z,59.5621
2023-05-09T07:04:02.619Z,59.6208
2023-05-09T07:05:04.989Z,59.3540
2023-05-09T07:06:07.385Z,59.6971
2023-05-09T07:07:09.640Z,59.7529
2023-05-09T07:08:11.976Z,60.1230
2023-05-09T07:09:14.304Z,59.5338
2023-05-09T07:10:16.638Z,58.6629
2023-05-09T07:11:18.984Z,58.5537
2023-05-09T07:12:21.305Z,58.9381
2023-05-09T07:13:23.743Z,59.9779
2023-05-09T07:14:25.970Z,59.1073
2023-05-09T07:15:40.602Z,58.7042
2023-05-09T07:16:30.692Z,58.5695
2023-05-09T07:17:33.009Z,59.2342
2023-05-09T07:18:35.321Z,59.0528
2023-05-09T07:19:37.662Z,58.7043
2023-05-09T07:20:39.982Z,58.8980
2023-05-09T07:21:42.415Z,58.3713
2023-05-09T07:22:44.735Z,58.5718
2023-05-09T07:23:47.005Z,58.4635
2023-05-09T07:24:49.318Z,57.7801
2023-05-09T07:25:51.657Z,57.5142
2023-05-09T07:26:53.996Z,57.5149
2023-05-09T07:27:56.339Z,57.5186
2023-05-09T07:28:58.671Z,57.1324
2023-05-09T07:30:01.000Z,57.5605
2023-05-09T07:31:03.337Z,57.1187
2023-05-09T07:32:05.708Z,56.9167
2023-05-09T07:33:08.240Z,57.3360
2023-05-09T07:34:10.368Z,57.8055
2023-05-09T07:35:12.985Z,57.5238
2023-05-09T07:36:15.013Z,57.7043
2023-05-09T07:37:17.492Z,57.2975
2023-05-09T07:38:19.698Z,56.5008
2023-05-09T07:39:22.064Z,56.7999
2023-05-09T07:40:24.368Z,56.7148
2023-05-09T07:41:26.843Z,56.5254
2023-05-09T07:42:29.044Z,56.4105
2023-05-09T07:43:31.372Z,56.2071
2023-05-09T07:44:33.725Z,56.0832
2023-05-09T07:45:36.043Z,55.6289
2023-05-09T07:46:38.402Z,55.4696
2023-05-09T07:47:40.759Z,55.3633
2023-05-09T07:48:43.070Z,55.1502
2023-05-09T07:49:45.417Z,55.2211
2023-05-09T07:50:47.740Z,55.4698
2023-05-09T07:51:50.092Z,55.1505
2023-05-09T07:52:52.530Z,54.6812
2023-05-09T07:53:54.755Z,55.0048
2023-05-09T07:54:57.114Z,54.5433
2023-05-09T07:55:59.437Z,54.9100
2023-05-09T07:57:01.776Z,53.9952
2023-05-09T07:58:04.100Z,53.1959
2023-05-09T07:59:06.458Z,52.9631
2023-05-09T08:00:08.813Z,52.7500
2023-05-09T08:01:11.148Z,52.4133
2023-05-09T08:02:13.503Z,52.6763
2023-05-09T08:03:16.032Z,54.2057
2023-05-09T08:04:18.181Z,54.0507
2023-05-09T08:05:20.975Z,53.1178
2023-05-09T08:06:22.849Z,53.6142
2023-05-09T08:07:25.169Z,53.8448
2023-05-09T08:08:27.529Z,53.3641
2023-05-09T08:09:29.864Z,52.7442
2023-05-09T08:10:32.329Z,52.5352
2023-05-09T08:11:34.553Z,53.1379
2023-05-09T08:12:36.895Z,52.4241
2023-05-09T08:13:39.346Z,52.5078
2023-05-09T08:14:41.556Z,51.5763
2023-05-09T08:15:43.922Z,50.8469
2023-05-09T08:16:46.248Z,50.5526
2023-05-09T08:17:48.705Z,49.9940
2023-05-09T08:18:50.925Z,49.3392
2023-05-09T08:19:53.285Z,50.1183
2023-05-09T08:20:55.596Z,49.9990
2023-05-09T08:21:57.962Z,50.3547
2023-05-09T08:23:00.303Z,48.9335
2023-05-09T08:24:02.739Z,48.9190
2023-05-09T08:25:04.970Z,47.6705
2023-05-09T08:26:07.307Z,48.1445
2023-05-09T08:27:09.661Z,46.4829
2023-05-09T08:28:12.014Z,46.7206
2023-05-09T08:29:14.337Z,46.6136
2023-05-09T08:30:16.748Z,46.1958
2023-05-09T08:31:19.060Z,46.3036
2023-05-09T08:32:21.387Z,45.6239
2023-05-09T08:33:23.749Z,45.6113
2023-05-09T08:34:26.058Z,46.0164
2023-05-09T08:35:28.401Z,46.9729
2023-05-09T08:36:30.758Z,47.4495
2023-05-09T08:37:33.088Z,47.2404
2023-05-09T08:38:35.487Z,46.8551
2023-05-09T08:39:37.869Z,45.3965
2023-05-09T08:40:40.127Z,45.6713
2023-05-09T08:41:42.525Z,44.9426
2023-05-09T08:42:44.863Z,43.7636
2023-05-09T08:43:47.210Z,43.4095
2023-05-09T08:44:49.507Z,44.3890
2023-05-09T08:45:51.872Z,44.1954
2023-05-09T08:46:54.303Z,44.7586
2023-05-09T08:47:56.558Z,43.1425
2023-05-09T08:48:58.930Z,44.2300
2023-05-09T08:50:01.230Z,43.3985
2023-05-09T08:51:03.581Z,44.1102
2023-05-09T08:52:05.986Z,44.3916
2023-05-09T08:53:08.280Z,45.5382
2023-05-09T08:54:10.655Z,43.8799
2023-05-09T08:55:13.096Z,43.4747
2023-05-09T08:56:15.298Z,43.7723
2023-05-09T08:57:17.664Z,44.4853
2023-05-09T08:58:20.005Z,44.2706
2023-05-09T08:59:22.396Z,44.9906
2023-05-09T09:00:24.760Z,44.5133
2023-05-09T09:01:27.102Z,44.2008
2023-05-09T09:02:29.429Z,43.4499
2023-05-09T09:03:31.717Z,44.3618
2023-05-09T09:04:34.134Z,43.6027
2023-05-09T09:05:41.964Z,43.3983
2023-05-09T09:06:38.795Z,42.0967
2023-05-09T09:07:41.103Z,43.3620
2023-05-09T09:08:43.464Z,42.8601
2023-05-09T09:09:45.813Z,42.9724
2023-05-09T09:10:48.254Z,43.0188
2023-05-09T09:11:50.479Z,42.4471
2023-05-09T09:12:52.848Z,43.7563
2023-05-09T09:13:55.191Z,44.3024
2023-05-09T09:14:57.531Z,44.1156
2023-05-09T09:16:00.141Z,43.9029
2023-05-09T09:17:02.209Z,43.8924
2023-05-09T09:18:07.535Z,44.1630
2023-05-09T09:19:06.899Z,43.4662
2023-05-09T09:20:09.268Z,43.2971
2023-05-09T09:21:11.729Z,43.1368
2023-05-09T09:22:13.965Z,43.8333
2023-05-09T09:23:16.278Z,43.2386
2023-05-09T09:24:18.641Z,43.4922
2023-05-09T09:25:20.995Z,42.6990
2023-05-09T09:26:23.425Z,41.4141
2023-05-09T09:27:25.676Z,41.0542
2023-05-09T09:28:28.030Z,41.3312
2023-05-09T09:29:30.383Z,40.9601
2023-05-09T09:30:32.714Z,41.6423
2023-05-09T09:31:35.100Z,42.2374
2023-05-09T09:32:37.487Z,39.4979
2023-05-09T09:33:39.759Z,41.0354
2023-05-09T09:34:42.155Z,42.2295
2023-05-09T09:35:44.453Z,41.3468
2023-05-09T09:36:46.815Z,41.3759
2023-05-09T09:37:49.154Z,40.2883
2023-05-09T09:38:51.493Z,41.5286
2023-05-09T09:39:53.866Z,39.5563
2023-05-09T09:40:56.242Z,39.6358
2023-05-09T09:41:58.625Z,41.0131
2023-05-09T09:43:00.882Z,41.8167
2023-05-09T09:44:03.233Z,40.7308
2023-05-09T09:45:05.589Z,40.6388
2023-05-09T09:46:07.934Z,40.3406
2023-05-09T09:47:10.272Z,40.6600
2023-05-09T09:48:12.685Z,41.2256
2023-05-09T09:49:15.007Z,38.9012
2023-05-09T09:50:17.463Z,39.6819
2023-05-09T09:51:19.667Z,39.5824
2023-05-09T09:52:22.022Z,39.3775
2023-05-09T09:53:24.367Z,38.9453
2023-05-09T09:54:26.740Z,39.0023
2023-05-09T09:55:29.088Z,38.3295
2023-05-09T09:56:31.428Z,38.5986
2023-05-09T09:57:33.863Z,38.7947
2023-05-09T09:58:36.121Z,38.8702
2023-05-09T09:59:38.521Z,38.9972
2023-05-09T10:00:40.866Z,39.3085
2023-05-09T10:01:43.244Z,38.5294
2023-05-09T10:02:45.557Z,37.8592
2023-05-09T10:03:47.956Z,37.8328
2023-05-09T10:04:50.247Z,38.3331
2023-05-09T10:05:52.582Z,38.3192
2023-05-09T10:06:54.958Z,38.1356
2023-05-09T10:07:57.275Z,37.2903
2023-05-09T10:08:59.645Z,35.9489
2023-05-09T10:10:02.039Z,36.7390
2023-05-09T10:11:04.340Z,36.8409
2023-05-09T10:12:06.703Z,38.3080
2023-05-09T10:13:09.158Z,37.7816
2023-05-09T10:14:11.383Z,38.2854
2023-05-09T10:15:13.756Z,37.8895
2023-05-09T10:16:16.193Z,38.2977
2023-05-09T10:17:18.507Z,36.6602
2023-05-09T10:18:20.970Z,35.9263
2023-05-09T10:19:23.134Z,37.3383
2023-05-09T10:20:25.529Z,36.0481
2023-05-09T10:21:27.827Z,35.1478
2023-05-09T10:22:30.173Z,35.1903
2023-05-09T10:23:32.546Z,35.8377
2023-05-09T10:24:34.908Z,37.3501
2023-05-09T10:25:37.263Z,38.2809
2023-05-09T10:26:39.577Z,38.0111
2023-05-09T10:27:41.942Z,37.2562
2023-05-09T10:28:44.378Z,37.6310
2023-05-09T10:29:46.665Z,38.3240
2023-05-09T10:30:49.030Z,38.4893
2023-05-09T10:31:51.466Z,38.7212
2023-05-09T10:32:53.722Z,37.6230
2023-05-09T10:33:56.079Z,38.1269
2023-05-09T10:34:58.393Z,38.2881
2023-05-09T10:36:00.755Z,37.5641
2023-05-09T10:37:03.118Z,38.0288
2023-05-09T10:38:05.462Z,37.1559
2023-05-09T10:39:07.798Z,36.9049
2023-05-09T10:40:10.149Z,37.8933
2023-05-09T10:41:12.496Z,37.6991
2023-05-09T10:42:14.864Z,35.8451
2023-05-09T10:43:17.216Z,36.2977
2023-05-09T10:44:19.659Z,37.2039
2023-05-09T10:45:21.893Z,37.8653
2023-05-09T10:46:24.363Z,37.6040
2023-05-09T10:47:51.445Z,38.0045
2023-05-09T10:48:28.999Z,38.2331
2023-05-09T10:49:31.351Z,37.6490
2023-05-09T10:50:33.702Z,36.9931
2023-05-09T10:51:36.036Z,36.8030
2023-05-09T10:52:38.366Z,36.8992
2023-05-09T10:53:40.749Z,37.0952
2023-05-09T10:54:43.488Z,36.8747
2023-05-09T10:55:45.428Z,38.1875
2023-05-09T10:56:47.772Z,38.6112
2023-05-09T10:57:50.130Z,37.8973
2023-05-09T10:58:52.480Z,35.5187
2023-05-09T10:59:55.009Z,36.2001
2023-05-09T11:00:57.445Z,36.8478
2023-05-09T11:01:59.712Z,36.4123
2023-05-09T11:03:02.095Z,35.4407
2023-05-09T11:04:04.341Z,36.2907
2023-05-09T11:05:06.690Z,36.5731
2023-05-09T11:06:08.999Z,37.3937
2023-05-09T11:07:11.376Z,38.0960
2023-05-09T11:08:13.717Z,36.8414
2023-05-09T11:09:16.074Z,36.8513
2023-05-09T11:10:18.523Z,37.6845
2023-05-09T11:11:20.769Z,37.0517
2023-05-09T11:12:23.123Z,37.2000
2023-05-09T11:13:25.536Z,37.5150
2023-05-09T11:14:27.799Z,36.9307
2023-05-09T11:15:30.337Z,36.3239
2023-05-09T11:16:32.519Z,36.6057
2023-05-09T11:17:34.924Z,36.7483
2023-05-09T11:18:37.274Z,36.1458
2023-05-09T11:19:39.568Z,36.5872
2023-05-09T11:20:41.978Z,35.2826
2023-05-09T11:21:44.276Z,35.6878
2023-05-09T11:22:46.632Z,36.1162
2023-05-09T11:23:48.931Z,37.3783
2023-05-09T11:24:51.281Z,38.1581
2023-05-09T11:25:53.667Z,37.8038
2023-05-09T11:26:56.143Z,38.1936
2023-05-09T11:27:58.346Z,38.3325
2023-05-09T11:29:00.702Z,38.4911
2023-05-09T11:30:03.052Z,37.7238
2023-05-09T11:31:05.489Z,37.3953
2023-05-09T11:32:07.944Z,37.5359
2023-05-09T11:33:10.090Z,39.4881
2023-05-09T11:34:12.410Z,37.8458
2023-05-09T11:35:15.366Z,37.2949
2023-05-09T11:36:17.165Z,37.8646
2023-05-09T11:37:19.554Z,36.5920
2023-05-09T11:38:21.843Z,37.1668
2023-05-09T11:39:24.190Z,37.0155
2023-05-09T11:40:26.505Z,38.0227
2023-05-09T11:41:29.006Z,39.7099
2023-05-09T11:42:31.230Z,38.2945
2023-05-09T11:43:33.609Z,37.9982
2023-05-09T11:44:35.934Z,38.3889
2023-05-09T11:45:38.325Z,39.2362
2023-05-09T11:46:40.658Z,39.8296
2023-05-09T11:47:43.048Z,39.1209
2023-05-09T11:48:45.483Z,39.5139
2023-05-09T11:49:49.964Z,38.2523
2023-05-09T11:50:50.080Z,38.7620
2023-05-09T11:51:52.320Z,39.6563
2023-05-09T11:52:54.700Z,39.5767
2023-05-09T11:53:57.030Z,39.9165
2023-05-09T11:54:59.523Z,41.7714
2023-05-09T11:56:02.160Z,41.7449
2023-05-09T11:57:04.126Z,41.0380
2023-05-09T11:58:06.563Z,42.0414
2023-05-09T11:59:08.766Z,41.6178
2023-05-09T12:00:11.229Z,41.5014
2023-05-09T12:01:13.587Z,39.8458
2023-05-09T12:02:15.871Z,40.8312
2023-05-09T12:03:18.489Z,39.6754
2023-05-09T12:04:20.472Z,39.0263
2023-05-09T12:05:23.093Z,38.1354
2023-05-09T12:06:26.254Z,38.7917
2023-05-09T12:07:27.530Z,38.8220
2023-05-09T12:08:29.938Z,39.9493
2023-05-09T12:09:32.199Z,40.5815
2023-05-09T12:10:34.542Z,40.1061
2023-05-09T12:11:37.189Z,39.9666
2023-05-09T12:12:39.284Z,39.6232
2023-05-09T12:13:41.594Z,39.3932
2023-05-09T12:14:44.855Z,38.9908
2023-05-09T12:15:46.373Z,38.8588
2023-05-09T12:16:48.674Z,40.4651
2023-05-09T12:17:52.103Z,39.2046
2023-05-09T12:18:53.333Z,39.3846
2023-05-09T12:19:55.635Z,40.5583
2023-05-09T12:20:57.985Z,39.3832
2023-05-09T12:22:00.321Z,39.7891
2023-05-09T12:23:02.697Z,39.5438
2023-05-09T12:24:05.044Z,38.3382
2023-05-09T12:25:07.447Z,38.4362
2023-05-09T12:26:09.724Z,38.0736
2023-05-09T12:27:12.209Z,38.4742
2023-05-09T12:28:14.840Z,37.9645
2023-05-09T12:29:17.089Z,38.9920
2023-05-09T12:30:19.172Z,37.6493
2023-05-09T12:31:21.541Z,37.9141
2023-05-09T12:32:23.801Z,37.1280
2023-05-09T12:33:26.828Z,37.6915